EKCH/CPH METAR and TAF weather

Enter ICAO airport designator
Station Type Date Time Source
EKCH METAR 2018/01/17 06:20 UTC NOAA

EKCH 170620Z 24007KT 9999 FEW010 BKN018 02/01 Q0986 TEMPO BKN012


Station Type Date Time Source
EKCH Decoded METAR 2018/01/17 06:20 UTC NOAA

Koebenhavn / Kastrup, Denmark (EKCH) 55-37N 012-39E 5M
Jan 17, 2018 - 01:20 AM EST / 2018.01.17 0620 UTC
Wind: from the WSW (240 degrees) at 8 MPH (7 KT):0
Visibility: greater than 7 mile(s):0
Sky conditions: mostly cloudy
Temperature: 35 F (2 C)
Windchill: 28 F (-2 C):1
Dew Point: 33 F (1 C)
Relative Humidity: 93%
Pressure (altimeter): 29.12 in. Hg (0986 hPa)
ob: EKCH 170620Z 24007KT 9999 FEW010 BKN018 02/01 Q0986 TEMPO BKN012
cycle: 6

Station Type Date Time Source
EKCH TAF 2018/01/17 06:19 UTC NOAA

TAF EKCH 170510Z 1706/1806 24010KT 9999 BKN012
TEMPO 1706/1715 BKN015
BECMG 1715/1718 BKN015
TEMPO 1800/1806 BKN008


Example: see airport list